createdAt,value
2023-03-08T07:26:31.768Z,4.00
2023-03-08T07:27:32.041Z,4.90
2023-03-08T07:28:32.383Z,3.30
2023-03-08T07:29:32.565Z,4.60
2023-03-08T07:30:32.889Z,3.90
2023-03-08T07:31:33.181Z,7.30
2023-03-08T07:32:33.688Z,3.50
2023-03-08T07:33:33.677Z,7.30
2023-03-08T07:34:33.976Z,4.90
2023-03-08T07:35:34.241Z,7.10
2023-03-08T07:36:34.374Z,4.70
2023-03-08T07:37:34.515Z,4.30
2023-03-08T07:38:34.793Z,5.00
2023-03-08T07:39:35.071Z,6.00
2023-03-08T07:40:35.376Z,6.50
2023-03-08T07:41:35.515Z,6.30
2023-03-08T07:42:35.813Z,4.80
2023-03-08T07:43:35.957Z,4.30
2023-03-08T07:44:36.230Z,9.50
2023-03-08T07:45:36.377Z,4.70
2023-03-08T07:46:36.718Z,11.20
2023-03-08T07:47:36.860Z,3.10
2023-03-08T07:48:37.163Z,8.50
2023-03-08T07:49:37.377Z,3.80
2023-03-08T07:50:37.661Z,4.80
2023-03-08T07:51:37.822Z,10.80
2023-03-08T07:52:37.970Z,5.20
2023-03-08T07:53:38.103Z,3.20
2023-03-08T07:54:38.383Z,5.70
2023-03-08T07:55:38.510Z,6.90
2023-03-08T07:56:38.722Z,6.90
2023-03-08T07:57:38.853Z,5.90
2023-03-08T07:58:39.137Z,5.10
2023-03-08T07:59:39.284Z,7.60
2023-03-08T08:00:39.554Z,6.50
2023-03-08T08:01:39.810Z,6.30
2023-03-08T08:02:40.091Z,7.10
2023-03-08T08:03:40.284Z,5.00
2023-03-08T08:04:40.488Z,11.30
2023-03-08T08:05:40.682Z,16.00
2023-03-08T08:06:40.839Z,14.30
2023-03-08T08:07:40.987Z,16.30
2023-03-08T08:08:41.235Z,19.90
2023-03-08T08:09:41.337Z,15.30
2023-03-08T08:10:41.517Z,12.10
2023-03-08T08:11:41.668Z,19.80
2023-03-08T08:12:41.848Z,15.90
2023-03-08T08:13:41.997Z,19.40
2023-03-08T08:14:42.202Z,17.40
2023-03-08T08:15:42.347Z,20.80
2023-03-08T08:16:42.581Z,18.60
2023-03-08T08:17:42.769Z,16.50
2023-03-08T08:18:42.961Z,18.70
2023-03-08T08:19:43.144Z,20.40
2023-03-08T08:20:43.356Z,20.40
2023-03-08T08:21:43.505Z,18.10
2023-03-08T08:22:43.650Z,15.90
2023-03-08T08:23:43.847Z,17.00
2023-03-08T08:24:44.014Z,15.70
2023-03-08T08:25:44.205Z,16.80
2023-03-08T08:26:44.371Z,16.20
2023-03-08T08:27:44.570Z,13.60
2023-03-08T08:28:44.750Z,19.00
2023-03-08T08:29:44.930Z,16.50
2023-03-08T08:30:45.091Z,20.20
2023-03-08T08:31:45.318Z,15.00
2023-03-08T08:32:45.603Z,16.90
2023-03-08T08:33:45.685Z,16.30
2023-03-08T08:34:45.852Z,16.60
2023-03-08T08:35:46.079Z,16.00
2023-03-08T08:36:46.231Z,15.20
2023-03-08T08:37:46.413Z,14.90
2023-03-08T08:38:46.614Z,15.70
2023-03-08T08:39:46.786Z,18.60
2023-03-08T08:40:46.977Z,16.30
2023-03-08T08:41:47.171Z,17.60
2023-03-08T08:42:47.322Z,13.00
2023-03-08T08:43:47.634Z,14.00
2023-03-08T08:44:47.804Z,12.50
2023-03-08T08:45:48.074Z,14.00
2023-03-08T08:46:48.224Z,15.10
2023-03-08T08:47:48.645Z,11.80
2023-03-08T08:48:48.688Z,11.70
2023-03-08T08:49:49.002Z,14.80
2023-03-08T08:50:49.157Z,12.10
2023-03-08T08:51:49.336Z,12.80
2023-03-08T08:52:49.537Z,16.20
2023-03-08T08:53:49.718Z,15.40
2023-03-08T08:54:49.896Z,17.30
2023-03-08T08:55:50.100Z,12.90
2023-03-08T08:56:50.256Z,12.00
2023-03-08T08:57:50.446Z,11.70
2023-03-08T08:58:50.628Z,11.00
2023-03-08T08:59:50.842Z,11.90
2023-03-08T09:00:51.028Z,9.00
2023-03-08T09:01:51.221Z,14.30
2023-03-08T09:02:51.465Z,12.70
2023-03-08T09:03:51.757Z,12.30
2023-03-08T09:04:51.858Z,13.00
2023-03-08T09:05:52.028Z,12.90
2023-03-08T09:06:52.209Z,12.60
2023-03-08T09:07:52.497Z,12.40
2023-03-08T09:08:52.671Z,13.80
2023-03-08T09:09:52.861Z,11.50
2023-03-08T09:10:53.059Z,13.40
2023-03-08T09:11:55.536Z,12.40
2023-03-08T09:12:53.461Z,11.90
2023-03-08T09:13:53.633Z,14.70
2023-03-08T09:14:53.800Z,13.30
2023-03-08T09:15:53.985Z,11.40
2023-03-08T09:16:54.271Z,12.30
2023-03-08T09:17:54.352Z,11.30
2023-03-08T09:18:54.523Z,12.30
2023-03-08T09:19:54.715Z,10.80
2023-03-08T09:20:54.893Z,13.90
2023-03-08T09:21:55.101Z,17.50
2023-03-08T09:22:55.328Z,10.10
2023-03-08T09:23:55.512Z,11.80
2023-03-08T09:24:55.689Z,14.50
2023-03-08T09:25:55.870Z,9.90
2023-03-08T09:26:56.012Z,10.80
2023-03-08T09:27:56.195Z,9.30
2023-03-08T09:28:56.340Z,13.10
2023-03-08T09:29:56.635Z,9.60
2023-03-08T09:30:56.772Z,9.00
2023-03-08T09:31:58.650Z,9.00
2023-03-08T09:32:57.336Z,12.70
2023-03-08T09:33:57.486Z,9.80
2023-03-08T09:34:57.665Z,11.10
2023-03-08T09:35:57.975Z,11.10
2023-03-08T09:36:58.092Z,9.50
2023-03-08T09:37:58.357Z,8.80
2023-03-08T09:38:58.493Z,12.50
2023-03-08T09:39:58.777Z,10.30
2023-03-08T09:40:58.938Z,14.10
2023-03-08T09:41:59.221Z,9.50
2023-03-08T09:42:59.413Z,9.80
2023-03-08T09:43:59.641Z,9.80
2023-03-08T09:44:59.889Z,11.50
2023-03-08T09:46:00.242Z,20.40
2023-03-08T09:47:00.351Z,16.50
2023-03-08T09:48:00.723Z,15.60
2023-03-08T09:49:00.890Z,15.90
2023-03-08T09:50:01.081Z,16.90
2023-03-08T09:51:01.216Z,13.60
2023-03-08T09:52:01.522Z,17.60
2023-03-08T09:53:01.671Z,22.00
2023-03-08T09:54:01.955Z,15.90
2023-03-08T09:55:02.174Z,14.90
2023-03-08T09:56:02.329Z,13.80
2023-03-08T09:57:02.470Z,16.20
2023-03-08T09:58:02.772Z,12.90
2023-03-08T09:59:02.921Z,14.50
2023-03-08T10:00:03.217Z,14.30
2023-03-08T10:01:03.401Z,11.40
2023-03-08T10:02:03.590Z,10.60
2023-03-08T10:03:03.805Z,12.00
2023-03-08T10:04:04.037Z,12.50
2023-03-08T10:05:12.683Z,8.80
2023-03-08T10:06:05.418Z,9.30
2023-03-08T10:07:04.703Z,14.70
2023-03-08T10:08:04.847Z,8.90
2023-03-08T10:09:05.101Z,11.30
2023-03-08T10:10:05.401Z,12.50
2023-03-08T10:11:05.551Z,13.20
2023-03-08T10:12:12.831Z,10.30
2023-03-08T10:13:07.093Z,7.90
2023-03-08T10:14:06.310Z,10.40
2023-03-08T10:15:06.476Z,13.00
2023-03-08T10:16:06.652Z,10.70
2023-03-08T10:17:06.806Z,10.90
2023-03-08T10:18:07.098Z,10.90
2023-03-08T10:19:07.241Z,11.50
2023-03-08T10:20:07.462Z,8.60
2023-03-08T10:21:07.582Z,8.10
2023-03-08T10:22:07.854Z,10.30
2023-03-08T10:23:07.994Z,8.90
2023-03-08T10:24:08.263Z,9.40
2023-03-08T10:25:08.395Z,6.40
2023-03-08T10:26:08.584Z,8.50
2023-03-08T10:27:08.713Z,7.90
2023-03-08T10:28:08.985Z,9.80
2023-03-08T10:29:09.126Z,13.40
2023-03-08T10:30:09.454Z,14.10
2023-03-08T10:31:09.609Z,12.90
2023-03-08T10:32:09.765Z,11.10
2023-03-08T10:33:09.906Z,11.60
2023-03-08T10:34:10.189Z,12.90
2023-03-08T10:35:10.339Z,11.40
2023-03-08T10:36:10.683Z,11.90
2023-03-08T10:37:10.786Z,10.50
2023-03-08T10:38:11.093Z,11.30
2023-03-08T10:39:11.252Z,11.30
2023-03-08T10:40:11.416Z,11.30
2023-03-08T10:41:11.576Z,12.60
2023-03-08T10:42:11.764Z,11.90
2023-03-08T10:43:11.929Z,11.10
2023-03-08T10:44:12.223Z,11.60
2023-03-08T10:45:12.392Z,15.00
2023-03-08T10:46:12.589Z,10.80
2023-03-08T10:47:12.747Z,11.10
2023-03-08T10:48:12.925Z,13.30
2023-03-08T10:49:13.088Z,10.60
2023-03-08T10:50:13.396Z,10.60
2023-03-08T10:51:13.546Z,10.50
2023-03-08T10:52:13.707Z,14.80
2023-03-08T10:53:13.876Z,11.00
2023-03-08T10:54:14.178Z,19.50
2023-03-08T10:55:14.341Z,12.30
2023-03-08T10:56:14.579Z,10.90
2023-03-08T10:57:14.689Z,11.60
2023-03-08T10:58:14.980Z,10.50
2023-03-08T10:59:15.130Z,11.00
2023-03-08T11:00:15.432Z,14.20
2023-03-08T11:01:15.594Z,9.90
2023-03-08T11:02:15.878Z,12.40
2023-03-08T11:03:16.019Z,12.90
2023-03-08T11:04:16.437Z,15.30
2023-03-08T11:05:16.470Z,10.80
2023-03-08T11:06:16.637Z,13.50
2023-03-08T11:07:16.792Z,16.90
2023-03-08T11:08:17.131Z,9.50
2023-03-08T11:09:17.248Z,16.40
2023-03-08T11:10:17.529Z,10.60
2023-03-08T11:11:17.662Z,11.90
2023-03-08T11:12:17.984Z,15.10
2023-03-08T11:13:18.059Z,15.10
2023-03-08T11:14:18.263Z,12.70
2023-03-08T11:15:18.441Z,11.90
2023-03-08T11:16:18.628Z,11.00
2023-03-08T11:17:18.753Z,9.30
2023-03-08T11:18:19.046Z,13.60
2023-03-08T11:19:19.327Z,12.80
2023-03-08T11:20:19.485Z,14.10
2023-03-08T11:21:19.655Z,12.00
2023-03-08T11:22:19.961Z,10.00
2023-03-08T11:23:20.125Z,10.60
2023-03-08T11:24:20.486Z,10.10
2023-03-08T11:25:20.667Z,9.90
2023-03-08T11:26:20.997Z,10.80
2023-03-08T11:27:21.106Z,11.10
2023-03-08T11:28:21.407Z,8.50
2023-03-08T11:29:21.579Z,12.40
2023-03-08T11:30:21.878Z,10.00
2023-03-08T11:31:22.100Z,8.00
2023-03-08T11:32:22.333Z,9.70
2023-03-08T11:33:22.668Z,10.10
2023-03-08T11:34:22.786Z,9.10
2023-03-08T11:35:23.059Z,8.70
2023-03-08T11:36:23.280Z,9.00
2023-03-08T11:37:23.439Z,9.30
2023-03-08T11:38:23.722Z,7.30
2023-03-08T11:39:23.872Z,7.40
2023-03-08T11:40:24.158Z,8.40
2023-03-08T11:41:24.312Z,6.30
2023-03-08T11:42:24.614Z,6.20
2023-03-08T11:43:24.751Z,4.90
2023-03-08T11:44:25.051Z,4.80
2023-03-08T11:45:25.292Z,5.10
2023-03-08T11:46:25.699Z,8.90
2023-03-08T11:47:25.824Z,9.20
2023-03-08T11:48:26.108Z,4.80
2023-03-08T11:49:26.254Z,6.80
2023-03-08T11:50:26.545Z,8.60
2023-03-08T11:51:26.710Z,7.80
2023-03-08T11:52:26.986Z,5.70
2023-03-08T11:53:27.124Z,6.90
2023-03-08T11:54:27.419Z,5.20
2023-03-08T11:55:27.564Z,5.40
2023-03-08T11:56:27.838Z,5.20
2023-03-08T11:57:27.969Z,4.80
2023-03-08T11:58:28.240Z,6.60
2023-03-08T11:59:28.419Z,6.40
2023-03-08T12:00:28.579Z,4.60
2023-03-08T12:01:28.694Z,8.30
2023-03-08T12:02:29.011Z,6.00
2023-03-08T12:03:29.130Z,6.10
2023-03-08T12:04:29.441Z,5.90
2023-03-08T12:05:29.676Z,6.40
2023-03-08T12:06:30.859Z,8.30
2023-03-08T12:07:30.081Z,13.90
2023-03-08T12:08:30.303Z,4.30
2023-03-08T12:09:30.416Z,4.70
2023-03-08T12:10:30.746Z,7.10
2023-03-08T12:11:31.434Z,3.90
2023-03-08T12:12:31.145Z,4.30
2023-03-08T12:13:31.337Z,5.70
2023-03-08T12:14:31.490Z,9.90
2023-03-08T12:15:31.747Z,4.00
2023-03-08T12:16:32.144Z,3.70
2023-03-08T12:17:32.333Z,3.70
2023-03-08T12:18:32.479Z,4.30
2023-03-08T12:19:32.624Z,4.40
2023-03-08T12:20:32.898Z,5.80
2023-03-08T12:21:33.059Z,4.60
2023-03-08T12:22:33.457Z,5.10
2023-03-08T12:23:33.485Z,3.50
2023-03-08T12:24:33.823Z,4.70
2023-03-08T12:25:33.949Z,4.10
2023-03-08T12:26:34.171Z,4.30
2023-03-08T12:27:34.315Z,3.70
2023-03-08T12:28:34.482Z,8.00
2023-03-08T12:29:34.793Z,6.10
2023-03-08T12:30:34.940Z,4.80
2023-03-08T12:31:35.189Z,3.90
2023-03-08T12:32:35.463Z,2.20
2023-03-08T12:33:35.574Z,5.80
2023-03-08T12:34:35.750Z,3.20
2023-03-08T12:35:36.076Z,3.40
2023-03-08T12:36:36.140Z,5.00
2023-03-08T12:37:36.382Z,5.50
2023-03-08T12:38:36.592Z,6.50
2023-03-08T12:39:36.794Z,3.70
2023-03-08T12:40:37.018Z,4.80
2023-03-08T12:41:37.365Z,2.60
2023-03-08T12:42:37.299Z,3.70
2023-03-08T12:43:37.607Z,5.60
2023-03-08T12:44:37.712Z,4.60
2023-03-08T12:45:38.082Z,4.60
2023-03-08T12:46:38.182Z,5.70
2023-03-08T12:47:38.479Z,2.70
2023-03-08T12:48:38.626Z,3.10
2023-03-08T12:49:38.946Z,4.00
2023-03-08T12:50:39.125Z,4.00
2023-03-08T12:51:39.314Z,3.00
2023-03-08T12:52:39.449Z,4.40
2023-03-08T12:53:39.726Z,4.70
2023-03-08T12:54:40.884Z,3.90
2023-03-08T12:55:40.218Z,2.70
2023-03-08T12:56:40.355Z,3.20
2023-03-08T12:57:40.628Z,3.40
2023-03-08T12:58:40.758Z,4.20
2023-03-08T12:59:41.038Z,4.60
2023-03-08T13:00:41.206Z,4.90
2023-03-08T13:01:41.354Z,4.20
2023-03-08T13:02:41.490Z,2.60
2023-03-08T13:03:41.771Z,3.60
2023-03-08T13:04:42.821Z,2.80
2023-03-08T13:05:42.091Z,3.50
2023-03-08T13:06:42.227Z,4.20
2023-03-08T13:07:42.508Z,2.80
2023-03-08T13:08:42.635Z,4.30
2023-03-08T13:09:42.918Z,3.40
2023-03-08T13:10:43.052Z,3.00
2023-03-08T13:11:43.346Z,4.00
2023-03-08T13:12:43.552Z,5.20
2023-03-08T13:13:43.912Z,4.60
2023-03-08T13:14:44.043Z,4.10
2023-03-08T13:15:44.336Z,5.80
2023-03-08T13:16:44.586Z,3.80
2023-03-08T13:17:44.720Z,5.40
2023-03-08T13:18:45.009Z,3.20
2023-03-08T13:19:45.290Z,3.50
2023-03-08T13:20:45.320Z,2.70
2023-03-08T13:21:45.602Z,4.00
2023-03-08T13:22:45.838Z,3.40
2023-03-08T13:23:46.012Z,5.40
2023-03-08T13:24:46.284Z,3.90
2023-03-08T13:25:46.526Z,3.90
2023-03-08T13:26:51.101Z,3.70
2023-03-08T13:27:46.770Z,5.60
2023-03-08T13:28:48.475Z,3.20
2023-03-08T13:29:47.257Z,3.30
2023-03-08T13:30:47.483Z,4.50
2023-03-08T13:31:47.584Z,3.60
2023-03-08T13:32:47.747Z,4.60
2023-03-08T13:33:47.900Z,4.70
2023-03-08T13:34:48.032Z,4.60
2023-03-08T13:35:48.328Z,2.20
